METAR Data
IDs: Format: Raw Decoded Include TAF

Data at: 1837 UTC 26 Sep 2021

EGVA 261756Z AUTO 20011KT 9999 FEW170 17/14 A2982 RMK AO2 SLP100 T01740141 10218 20174 55004 $